sensor_id;sensor_type;location;lat;lon;timestamp;P1;durP1;ratioP1;P2;durP2;ratioP2
51943;SDS011;37969;53.132;6.370;2023-04-15T00:00:05;9.85;;;4.78;;
51943;SDS011;37969;53.132;6.370;2023-04-15T00:02:31;12.40;;;5.00;;
51943;SDS011;37969;53.132;6.370;2023-04-15T00:04:58;14.98;;;5.13;;
51943;SDS011;37969;53.132;6.370;2023-04-15T00:07:24;11.38;;;5.15;;
51943;SDS011;37969;53.132;6.370;2023-04-15T00:09:50;15.52;;;6.07;;
51943;SDS011;37969;53.132;6.370;2023-04-15T00:12:19;13.27;;;5.68;;
51943;SDS011;37969;53.132;6.370;2023-04-15T00:14:46;16.27;;;5.60;;
51943;SDS011;37969;53.132;6.370;2023-04-15T00:17:12;9.60;;;5.80;;
51943;SDS011;37969;53.132;6.370;2023-04-15T00:19:38;26.23;;;7.22;;
51943;SDS011;37969;53.132;6.370;2023-04-15T00:22:05;15.55;;;6.78;;
51943;SDS011;37969;53.132;6.370;2023-04-15T00:24:31;16.00;;;6.63;;
51943;SDS011;37969;53.132;6.370;2023-04-15T00:26:57;13.35;;;6.22;;
51943;SDS011;37969;53.132;6.370;2023-04-15T00:29:24;13.73;;;6.60;;
51943;SDS011;37969;53.132;6.370;2023-04-15T00:31:50;19.17;;;7.38;;
51943;SDS011;37969;53.132;6.370;2023-04-15T00:34:16;18.65;;;6.82;;
51943;SDS011;37969;53.132;6.370;2023-04-15T00:36:42;21.80;;;8.57;;
51943;SDS011;37969;53.132;6.370;2023-04-15T00:39:09;16.02;;;7.18;;
51943;SDS011;37969;53.132;6.370;2023-04-15T00:41:35;14.50;;;8.30;;
51943;SDS011;37969;53.132;6.370;2023-04-15T00:44:05;13.40;;;7.50;;
51943;SDS011;37969;53.132;6.370;2023-04-15T00:46:31;14.70;;;7.72;;
51943;SDS011;37969;53.132;6.370;2023-04-15T00:48:58;18.10;;;8.73;;
51943;SDS011;37969;53.132;6.370;2023-04-15T00:51:25;15.52;;;8.90;;
51943;SDS011;37969;53.132;6.370;2023-04-15T00:53:51;20.13;;;9.65;;
51943;SDS011;37969;53.132;6.370;2023-04-15T00:56:18;13.95;;;8.52;;
51943;SDS011;37969;53.132;6.370;2023-04-15T00:58:45;18.45;;;9.13;;
51943;SDS011;37969;53.132;6.370;2023-04-15T01:01:12;19.92;;;9.60;;
51943;SDS011;37969;53.132;6.370;2023-04-15T01:03:38;20.80;;;9.55;;
51943;SDS011;37969;53.132;6.370;2023-04-15T01:06:05;17.77;;;10.10;;
51943;SDS011;37969;53.132;6.370;2023-04-15T01:08:32;16.13;;;9.98;;
51943;SDS011;37969;53.132;6.370;2023-04-15T01:11:00;20.00;;;10.75;;
51943;SDS011;37969;53.132;6.370;2023-04-15T01:13:27;22.17;;;10.60;;
51943;SDS011;37969;53.132;6.370;2023-04-15T01:15:54;23.20;;;10.55;;
51943;SDS011;37969;53.132;6.370;2023-04-15T01:18:21;21.73;;;10.50;;
51943;SDS011;37969;53.132;6.370;2023-04-15T01:20:48;22.30;;;12.27;;
51943;SDS011;37969;53.132;6.370;2023-04-15T01:23:14;19.75;;;11.25;;
51943;SDS011;37969;53.132;6.370;2023-04-15T01:25:41;19.73;;;11.15;;
51943;SDS011;37969;53.132;6.370;2023-04-15T01:28:09;20.20;;;11.65;;
51943;SDS011;37969;53.132;6.370;2023-04-15T01:30:35;20.63;;;12.00;;
51943;SDS011;37969;53.132;6.370;2023-04-15T01:33:01;22.63;;;12.15;;
51943;SDS011;37969;53.132;6.370;2023-04-15T01:35:27;22.58;;;12.27;;
51943;SDS011;37969;53.132;6.370;2023-04-15T01:37:53;17.48;;;12.00;;
51943;SDS011;37969;53.132;6.370;2023-04-15T01:40:24;21.02;;;13.20;;
51943;SDS011;37969;53.132;6.370;2023-04-15T01:42:50;21.60;;;13.32;;
51943;SDS011;37969;53.132;6.370;2023-04-15T01:45:17;18.83;;;12.32;;
51943;SDS011;37969;53.132;6.370;2023-04-15T01:47:43;18.02;;;12.73;;
51943;SDS011;37969;53.132;6.370;2023-04-15T01:50:09;18.40;;;12.18;;
51943;SDS011;37969;53.132;6.370;2023-04-15T01:52:35;18.27;;;12.55;;
51943;SDS011;37969;53.132;6.370;2023-04-15T01:55:02;22.17;;;13.10;;
51943;SDS011;37969;53.132;6.370;2023-04-15T01:57:28;20.42;;;13.30;;
51943;SDS011;37969;53.132;6.370;2023-04-15T01:59:54;21.65;;;13.10;;
51943;SDS011;37969;53.132;6.370;2023-04-15T02:02:21;19.55;;;12.98;;
51943;SDS011;37969;53.132;6.370;2023-04-15T02:04:47;23.45;;;13.10;;
51943;SDS011;37969;53.132;6.370;2023-04-15T02:07:14;22.55;;;13.57;;
51943;SDS011;37969;53.132;6.370;2023-04-15T02:09:40;21.92;;;13.40;;
51943;SDS011;37969;53.132;6.370;2023-04-15T02:12:08;22.13;;;13.32;;
51943;SDS011;37969;53.132;6.370;2023-04-15T02:14:34;23.60;;;13.80;;
51943;SDS011;37969;53.132;6.370;2023-04-15T02:17:00;19.38;;;12.10;;
51943;SDS011;37969;53.132;6.370;2023-04-15T02:19:31;19.67;;;12.93;;
51943;SDS011;37969;53.132;6.370;2023-04-15T02:21:58;21.48;;;13.10;;
51943;SDS011;37969;53.132;6.370;2023-04-15T02:24:26;19.50;;;12.77;;
51943;SDS011;37969;53.132;6.370;2023-04-15T02:26:52;20.42;;;13.63;;
51943;SDS011;37969;53.132;6.370;2023-04-15T02:29:18;20.20;;;12.93;;
51943;SDS011;37969;53.132;6.370;2023-04-15T02:31:44;21.58;;;13.40;;
51943;SDS011;37969;53.132;6.370;2023-04-15T02:34:12;16.30;;;12.98;;
51943;SDS011;37969;53.132;6.370;2023-04-15T02:36:38;19.05;;;13.10;;
51943;SDS011;37969;53.132;6.370;2023-04-15T02:39:05;22.05;;;13.02;;
51943;SDS011;37969;53.132;6.370;2023-04-15T02:41:31;20.35;;;14.80;;
51943;SDS011;37969;53.132;6.370;2023-04-15T02:43:57;20.23;;;13.02;;
51943;SDS011;37969;53.132;6.370;2023-04-15T02:46:23;19.00;;;13.45;;
51943;SDS011;37969;53.132;6.370;2023-04-15T02:48:49;19.38;;;13.63;;
51943;SDS011;37969;53.132;6.370;2023-04-15T02:51:18;21.13;;;14.55;;
51943;SDS011;37969;53.132;6.370;2023-04-15T02:53:45;20.08;;;13.93;;
51943;SDS011;37969;53.132;6.370;2023-04-15T02:56:12;23.08;;;15.18;;
51943;SDS011;37969;53.132;6.370;2023-04-15T02:58:40;22.17;;;14.63;;
51943;SDS011;37969;53.132;6.370;2023-04-15T03:01:06;21.90;;;14.32;;
51943;SDS011;37969;53.132;6.370;2023-04-15T03:03:33;21.98;;;14.25;;
51943;SDS011;37969;53.132;6.370;2023-04-15T03:06:00;21.45;;;15.68;;
51943;SDS011;37969;53.132;6.370;2023-04-15T03:08:26;21.75;;;14.30;;
51943;SDS011;37969;53.132;6.370;2023-04-15T03:10:52;21.38;;;14.32;;
51943;SDS011;37969;53.132;6.370;2023-04-15T03:13:18;23.83;;;15.20;;
51943;SDS011;37969;53.132;6.370;2023-04-15T03:15:45;26.20;;;16.08;;
51943;SDS011;37969;53.132;6.370;2023-04-15T03:18:12;19.58;;;14.73;;
51943;SDS011;37969;53.132;6.370;2023-04-15T03:20:38;18.83;;;14.15;;
51943;SDS011;37969;53.132;6.370;2023-04-15T03:23:04;23.98;;;15.68;;
51943;SDS011;37969;53.132;6.370;2023-04-15T03:25:30;24.35;;;15.95;;
51943;SDS011;37969;53.132;6.370;2023-04-15T03:27:57;19.65;;;13.88;;
51943;SDS011;37969;53.132;6.370;2023-04-15T03:30:23;20.65;;;14.35;;
51943;SDS011;37969;53.132;6.370;2023-04-15T03:32:49;20.05;;;14.82;;
51943;SDS011;37969;53.132;6.370;2023-04-15T03:35:15;18.02;;;13.25;;
51943;SDS011;37969;53.132;6.370;2023-04-15T03:37:41;26.50;;;16.50;;
51943;SDS011;37969;53.132;6.370;2023-04-15T03:40:08;21.50;;;14.38;;
51943;SDS011;37969;53.132;6.370;2023-04-15T03:42:34;22.67;;;15.80;;
51943;SDS011;37969;53.132;6.370;2023-04-15T03:45:00;26.75;;;14.70;;
51943;SDS011;37969;53.132;6.370;2023-04-15T03:47:26;24.98;;;16.55;;
51943;SDS011;37969;53.132;6.370;2023-04-15T03:49:52;28.65;;;16.33;;
51943;SDS011;37969;53.132;6.370;2023-04-15T03:52:21;23.52;;;14.93;;
51943;SDS011;37969;53.132;6.370;2023-04-15T03:54:47;19.33;;;14.52;;
51943;SDS011;37969;53.132;6.370;2023-04-15T03:57:13;18.27;;;13.80;;
51943;SDS011;37969;53.132;6.370;2023-04-15T03:59:39;24.73;;;16.40;;
51943;SDS011;37969;53.132;6.370;2023-04-15T04:02:06;29.05;;;16.58;;
51943;SDS011;37969;53.132;6.370;2023-04-15T04:04:32;25.60;;;16.80;;
51943;SDS011;37969;53.132;6.370;2023-04-15T04:06:58;28.08;;;18.92;;
51943;SDS011;37969;53.132;6.370;2023-04-15T04:09:24;30.33;;;19.80;;
51943;SDS011;37969;53.132;6.370;2023-04-15T04:11:50;31.77;;;20.05;;
51943;SDS011;37969;53.132;6.370;2023-04-15T04:14:16;29.40;;;18.35;;
51943;SDS011;37969;53.132;6.370;2023-04-15T04:16:42;33.67;;;20.33;;
51943;SDS011;37969;53.132;6.370;2023-04-15T04:19:09;32.22;;;19.73;;
51943;SDS011;37969;53.132;6.370;2023-04-15T04:21:35;31.15;;;19.67;;
51943;SDS011;37969;53.132;6.370;2023-04-15T04:24:02;28.15;;;18.05;;
51943;SDS011;37969;53.132;6.370;2023-04-15T04:26:29;29.17;;;19.60;;
51943;SDS011;37969;53.132;6.370;2023-04-15T04:28:55;30.92;;;19.23;;
51943;SDS011;37969;53.132;6.370;2023-04-15T04:31:21;32.33;;;20.77;;
51943;SDS011;37969;53.132;6.370;2023-04-15T04:33:47;39.88;;;21.92;;
51943;SDS011;37969;53.132;6.370;2023-04-15T04:36:13;30.73;;;18.98;;
51943;SDS011;37969;53.132;6.370;2023-04-15T04:38:39;29.45;;;18.55;;
51943;SDS011;37969;53.132;6.370;2023-04-15T04:41:05;35.03;;;20.95;;
51943;SDS011;37969;53.132;6.370;2023-04-15T04:43:31;35.50;;;21.30;;
51943;SDS011;37969;53.132;6.370;2023-04-15T04:45:58;34.92;;;21.20;;
51943;SDS011;37969;53.132;6.370;2023-04-15T04:48:24;34.20;;;20.83;;
51943;SDS011;37969;53.132;6.370;2023-04-15T04:50:51;28.30;;;19.88;;
51943;SDS011;37969;53.132;6.370;2023-04-15T04:53:17;37.97;;;23.55;;
51943;SDS011;37969;53.132;6.370;2023-04-15T04:55:43;37.22;;;22.33;;
51943;SDS011;37969;53.132;6.370;2023-04-15T04:58:09;34.08;;;21.13;;
51943;SDS011;37969;53.132;6.370;2023-04-15T05:00:35;35.55;;;22.83;;
51943;SDS011;37969;53.132;6.370;2023-04-15T05:03:02;39.80;;;23.92;;
51943;SDS011;37969;53.132;6.370;2023-04-15T05:05:28;44.92;;;25.70;;
51943;SDS011;37969;53.132;6.370;2023-04-15T05:07:55;37.35;;;23.55;;
51943;SDS011;37969;53.132;6.370;2023-04-15T05:10:21;42.42;;;24.60;;
51943;SDS011;37969;53.132;6.370;2023-04-15T05:12:47;39.10;;;23.48;;
51943;SDS011;37969;53.132;6.370;2023-04-15T05:15:13;37.13;;;23.50;;
51943;SDS011;37969;53.132;6.370;2023-04-15T05:17:39;35.92;;;24.00;;
51943;SDS011;37969;53.132;6.370;2023-04-15T05:20:06;36.97;;;22.95;;
51943;SDS011;37969;53.132;6.370;2023-04-15T05:22:32;34.95;;;23.08;;
51943;SDS011;37969;53.132;6.370;2023-04-15T05:24:58;35.67;;;23.40;;
51943;SDS011;37969;53.132;6.370;2023-04-15T05:27:24;31.77;;;21.08;;
51943;SDS011;37969;53.132;6.370;2023-04-15T05:29:50;33.22;;;21.77;;
51943;SDS011;37969;53.132;6.370;2023-04-15T05:32:17;32.15;;;20.92;;
51943;SDS011;37969;53.132;6.370;2023-04-15T05:34:43;31.48;;;21.33;;
51943;SDS011;37969;53.132;6.370;2023-04-15T05:37:09;30.05;;;20.83;;
51943;SDS011;37969;53.132;6.370;2023-04-15T05:39:35;32.40;;;21.38;;
51943;SDS011;37969;53.132;6.370;2023-04-15T05:42:01;33.53;;;21.95;;
51943;SDS011;37969;53.132;6.370;2023-04-15T05:44:30;31.60;;;21.55;;
51943;SDS011;37969;53.132;6.370;2023-04-15T05:46:56;33.30;;;21.50;;
51943;SDS011;37969;53.132;6.370;2023-04-15T05:49:22;31.17;;;21.65;;
51943;SDS011;37969;53.132;6.370;2023-04-15T05:51:48;31.05;;;21.58;;
51943;SDS011;37969;53.132;6.370;2023-04-15T05:54:14;30.73;;;21.83;;
51943;SDS011;37969;53.132;6.370;2023-04-15T05:56:41;34.72;;;21.65;;
51943;SDS011;37969;53.132;6.370;2023-04-15T05:59:07;31.50;;;22.10;;
51943;SDS011;37969;53.132;6.370;2023-04-15T06:01:33;31.27;;;21.50;;
51943;SDS011;37969;53.132;6.370;2023-04-15T06:03:59;33.92;;;21.42;;
51943;SDS011;37969;53.132;6.370;2023-04-15T06:06:25;29.20;;;20.42;;
51943;SDS011;37969;53.132;6.370;2023-04-15T06:08:52;32.03;;;21.35;;
51943;SDS011;37969;53.132;6.370;2023-04-15T06:11:19;28.85;;;20.58;;
51943;SDS011;37969;53.132;6.370;2023-04-15T06:13:46;27.42;;;19.55;;
51943;SDS011;37969;53.132;6.370;2023-04-15T06:16:12;28.20;;;19.83;;
51943;SDS011;37969;53.132;6.370;2023-04-15T06:18:38;29.13;;;19.65;;
51943;SDS011;37969;53.132;6.370;2023-04-15T06:21:04;30.20;;;20.15;;
51943;SDS011;37969;53.132;6.370;2023-04-15T06:23:33;33.45;;;19.98;;
51943;SDS011;37969;53.132;6.370;2023-04-15T06:26:00;28.55;;;19.15;;
51943;SDS011;37969;53.132;6.370;2023-04-15T06:28:26;34.55;;;20.23;;
51943;SDS011;37969;53.132;6.370;2023-04-15T06:30:53;30.85;;;20.90;;
51943;SDS011;37969;53.132;6.370;2023-04-15T06:33:19;30.90;;;20.60;;
51943;SDS011;37969;53.132;6.370;2023-04-15T06:35:45;26.55;;;18.70;;
51943;SDS011;37969;53.132;6.370;2023-04-15T06:38:13;25.52;;;18.23;;
51943;SDS011;37969;53.132;6.370;2023-04-15T06:40:40;26.92;;;18.17;;
51943;SDS011;37969;53.132;6.370;2023-04-15T06:43:06;25.90;;;18.00;;
51943;SDS011;37969;53.132;6.370;2023-04-15T06:45:33;27.90;;;17.23;;
51943;SDS011;37969;53.132;6.370;2023-04-15T06:47:59;25.55;;;18.98;;
51943;SDS011;37969;53.132;6.370;2023-04-15T06:50:26;27.55;;;18.40;;
51943;SDS011;37969;53.132;6.370;2023-04-15T06:52:53;24.02;;;16.88;;
51943;SDS011;37969;53.132;6.370;2023-04-15T06:55:19;24.45;;;17.25;;
51943;SDS011;37969;53.132;6.370;2023-04-15T06:57:46;27.10;;;18.33;;
51943;SDS011;37969;53.132;6.370;2023-04-15T07:00:12;27.95;;;18.00;;
51943;SDS011;37969;53.132;6.370;2023-04-15T07:02:38;25.38;;;17.48;;
51943;SDS011;37969;53.132;6.370;2023-04-15T07:05:05;26.08;;;17.95;;
51943;SDS011;37969;53.132;6.370;2023-04-15T07:07:31;23.05;;;17.17;;
51943;SDS011;37969;53.132;6.370;2023-04-15T07:09:58;23.73;;;16.15;;
51943;SDS011;37969;53.132;6.370;2023-04-15T07:12:26;23.05;;;16.50;;
51943;SDS011;37969;53.132;6.370;2023-04-15T07:14:52;23.60;;;17.52;;
51943;SDS011;37969;53.132;6.370;2023-04-15T07:17:18;21.15;;;16.05;;
51943;SDS011;37969;53.132;6.370;2023-04-15T07:19:44;22.98;;;15.85;;
51943;SDS011;37969;53.132;6.370;2023-04-15T07:22:11;24.98;;;15.75;;
51943;SDS011;37969;53.132;6.370;2023-04-15T07:24:37;18.13;;;14.05;;
51943;SDS011;37969;53.132;6.370;2023-04-15T07:27:03;18.85;;;14.20;;
51943;SDS011;37969;53.132;6.370;2023-04-15T07:29:30;18.63;;;13.63;;
51943;SDS011;37969;53.132;6.370;2023-04-15T07:31:56;15.65;;;11.57;;
51943;SDS011;37969;53.132;6.370;2023-04-15T07:34:22;18.25;;;11.18;;
51943;SDS011;37969;53.132;6.370;2023-04-15T07:36:48;14.93;;;10.73;;
51943;SDS011;37969;53.132;6.370;2023-04-15T07:39:16;16.42;;;9.40;;
51943;SDS011;37969;53.132;6.370;2023-04-15T07:41:43;13.23;;;9.07;;
51943;SDS011;37969;53.132;6.370;2023-04-15T07:44:09;11.02;;;8.10;;
51943;SDS011;37969;53.132;6.370;2023-04-15T07:46:36;12.85;;;8.23;;
51943;SDS011;37969;53.132;6.370;2023-04-15T07:49:02;18.33;;;9.20;;
51943;SDS011;37969;53.132;6.370;2023-04-15T07:51:28;18.55;;;9.25;;
51943;SDS011;37969;53.132;6.370;2023-04-15T07:53:56;13.25;;;8.70;;
51943;SDS011;37969;53.132;6.370;2023-04-15T07:56:22;14.93;;;8.98;;
51943;SDS011;37969;53.132;6.370;2023-04-15T07:58:49;12.57;;;9.13;;
51943;SDS011;37969;53.132;6.370;2023-04-15T08:01:15;14.98;;;9.13;;
51943;SDS011;37969;53.132;6.370;2023-04-15T08:03:41;11.90;;;8.77;;
51943;SDS011;37969;53.132;6.370;2023-04-15T08:06:08;13.32;;;9.70;;
51943;SDS011;37969;53.132;6.370;2023-04-15T08:08:34;13.13;;;9.27;;
51943;SDS011;37969;53.132;6.370;2023-04-15T08:11:00;14.40;;;9.13;;
51943;SDS011;37969;53.132;6.370;2023-04-15T08:13:26;12.80;;;8.43;;
51943;SDS011;37969;53.132;6.370;2023-04-15T08:16:12;12.13;;;8.27;;
51943;SDS011;37969;53.132;6.370;2023-04-15T08:18:38;16.48;;;8.27;;
51943;SDS011;37969;53.132;6.370;2023-04-15T08:21:04;9.82;;;8.02;;
51943;SDS011;37969;53.132;6.370;2023-04-15T08:23:30;16.10;;;9.02;;
51943;SDS011;37969;53.132;6.370;2023-04-15T08:25:57;11.32;;;7.70;;
51943;SDS011;37969;53.132;6.370;2023-04-15T08:28:23;9.38;;;7.10;;
51943;SDS011;37969;53.132;6.370;2023-04-15T08:30:51;11.63;;;7.47;;
51943;SDS011;37969;53.132;6.370;2023-04-15T08:33:17;13.68;;;8.30;;
51943;SDS011;37969;53.132;6.370;2023-04-15T08:35:43;18.75;;;8.98;;
51943;SDS011;37969;53.132;6.370;2023-04-15T08:38:10;13.23;;;7.68;;
51943;SDS011;37969;53.132;6.370;2023-04-15T08:40:43;16.17;;;7.15;;
51943;SDS011;37969;53.132;6.370;2023-04-15T08:43:11;13.60;;;7.57;;
51943;SDS011;37969;53.132;6.370;2023-04-15T08:45:38;11.27;;;6.95;;
51943;SDS011;37969;53.132;6.370;2023-04-15T08:48:04;9.95;;;6.65;;
51943;SDS011;37969;53.132;6.370;2023-04-15T08:50:31;13.82;;;7.47;;
51943;SDS011;37969;53.132;6.370;2023-04-15T08:52:58;13.25;;;7.07;;
51943;SDS011;37969;53.132;6.370;2023-04-15T08:55:26;12.20;;;5.60;;
51943;SDS011;37969;53.132;6.370;2023-04-15T08:57:53;11.55;;;5.63;;
51943;SDS011;37969;53.132;6.370;2023-04-15T09:00:19;7.30;;;4.40;;
51943;SDS011;37969;53.132;6.370;2023-04-15T09:02:46;7.78;;;5.32;;
51943;SDS011;37969;53.132;6.370;2023-04-15T09:05:12;7.28;;;4.70;;
51943;SDS011;37969;53.132;6.370;2023-04-15T09:07:38;8.93;;;4.85;;
51943;SDS011;37969;53.132;6.370;2023-04-15T09:10:05;6.38;;;4.30;;
51943;SDS011;37969;53.132;6.370;2023-04-15T09:12:33;8.00;;;4.50;;
51943;SDS011;37969;53.132;6.370;2023-04-15T09:15:00;10.35;;;4.68;;
51943;SDS011;37969;53.132;6.370;2023-04-15T09:17:26;7.13;;;4.93;;
51943;SDS011;37969;53.132;6.370;2023-04-15T09:20:06;7.63;;;4.20;;
51943;SDS011;37969;53.132;6.370;2023-04-15T09:22:32;5.90;;;4.07;;
51943;SDS011;37969;53.132;6.370;2023-04-15T09:24:58;9.90;;;4.72;;
51943;SDS011;37969;53.132;6.370;2023-04-15T09:27:25;8.07;;;4.82;;
51943;SDS011;37969;53.132;6.370;2023-04-15T09:29:52;11.25;;;4.25;;
51943;SDS011;37969;53.132;6.370;2023-04-15T09:32:18;8.10;;;4.03;;
51943;SDS011;37969;53.132;6.370;2023-04-15T09:34:47;8.65;;;4.30;;
51943;SDS011;37969;53.132;6.370;2023-04-15T09:37:13;8.50;;;3.97;;
51943;SDS011;37969;53.132;6.370;2023-04-15T09:39:44;7.07;;;3.72;;
51943;SDS011;37969;53.132;6.370;2023-04-15T09:42:11;9.07;;;4.07;;
51943;SDS011;37969;53.132;6.370;2023-04-15T09:44:37;7.88;;;3.30;;
51943;SDS011;37969;53.132;6.370;2023-04-15T09:47:03;9.20;;;2.85;;
51943;SDS011;37969;53.132;6.370;2023-04-15T09:49:29;8.88;;;2.85;;
51943;SDS011;37969;53.132;6.370;2023-04-15T09:51:58;7.00;;;2.55;;
51943;SDS011;37969;53.132;6.370;2023-04-15T09:54:27;4.00;;;2.00;;
51943;SDS011;37969;53.132;6.370;2023-04-15T09:57:03;4.88;;;1.98;;
51943;SDS011;37969;53.132;6.370;2023-04-15T09:59:29;4.40;;;2.45;;
51943;SDS011;37969;53.132;6.370;2023-04-15T10:01:55;3.25;;;2.03;;
51943;SDS011;37969;53.132;6.370;2023-04-15T10:04:22;2.65;;;2.00;;
51943;SDS011;37969;53.132;6.370;2023-04-15T10:06:48;3.42;;;1.80;;
51943;SDS011;37969;53.132;6.370;2023-04-15T10:09:15;3.00;;;1.88;;
51943;SDS011;37969;53.132;6.370;2023-04-15T10:11:41;3.35;;;1.75;;
51943;SDS011;37969;53.132;6.370;2023-04-15T10:14:09;2.58;;;1.65;;
51943;SDS011;37969;53.132;6.370;2023-04-15T10:16:35;4.53;;;1.85;;
51943;SDS011;37969;53.132;6.370;2023-04-15T10:19:03;2.35;;;1.63;;
51943;SDS011;37969;53.132;6.370;2023-04-15T10:21:31;1.98;;;1.70;;
51943;SDS011;37969;53.132;6.370;2023-04-15T10:23:58;3.33;;;1.88;;
51943;SDS011;37969;53.132;6.370;2023-04-15T10:26:25;4.32;;;2.00;;
51943;SDS011;37969;53.132;6.370;2023-04-15T10:28:52;5.03;;;2.20;;
51943;SDS011;37969;53.132;6.370;2023-04-15T10:31:18;3.58;;;1.75;;
51943;SDS011;37969;53.132;6.370;2023-04-15T10:33:45;5.72;;;2.17;;
51943;SDS011;37969;53.132;6.370;2023-04-15T10:36:12;2.22;;;1.85;;
51943;SDS011;37969;53.132;6.370;2023-04-15T10:38:40;3.13;;;1.92;;
51943;SDS011;37969;53.132;6.370;2023-04-15T10:41:11;5.70;;;1.55;;
51943;SDS011;37969;53.132;6.370;2023-04-15T10:43:38;4.07;;;2.10;;
51943;SDS011;37969;53.132;6.370;2023-04-15T10:46:05;4.82;;;2.10;;
51943;SDS011;37969;53.132;6.370;2023-04-15T10:48:31;3.30;;;1.80;;
51943;SDS011;37969;53.132;6.370;2023-04-15T10:50:59;3.75;;;2.10;;
51943;SDS011;37969;53.132;6.370;2023-04-15T10:53:29;4.20;;;2.13;;
51943;SDS011;37969;53.132;6.370;2023-04-15T10:55:58;3.58;;;1.80;;
51943;SDS011;37969;53.132;6.370;2023-04-15T10:58:24;5.28;;;2.35;;
51943;SDS011;37969;53.132;6.370;2023-04-15T11:00:52;7.95;;;2.13;;
51943;SDS011;37969;53.132;6.370;2023-04-15T11:03:37;3.13;;;2.10;;
51943;SDS011;37969;53.132;6.370;2023-04-15T11:06:04;6.78;;;2.08;;
51943;SDS011;37969;53.132;6.370;2023-04-15T11:11:16;4.68;;;2.40;;
51943;SDS011;37969;53.132;6.370;2023-04-15T11:13:46;5.68;;;2.20;;
51943;SDS011;37969;53.132;6.370;2023-04-15T11:16:13;4.57;;;2.58;;
51943;SDS011;37969;53.132;6.370;2023-04-15T11:18:39;7.68;;;2.40;;
51943;SDS011;37969;53.132;6.370;2023-04-15T11:21:06;9.77;;;2.65;;
51943;SDS011;37969;53.132;6.370;2023-04-15T11:23:34;7.57;;;2.63;;
51943;SDS011;37969;53.132;6.370;2023-04-15T11:26:01;4.78;;;2.00;;
51943;SDS011;37969;53.132;6.370;2023-04-15T11:28:30;5.93;;;2.60;;
51943;SDS011;37969;53.132;6.370;2023-04-15T11:30:56;6.18;;;2.20;;
51943;SDS011;37969;53.132;6.370;2023-04-15T11:33:23;5.20;;;2.90;;
51943;SDS011;37969;53.132;6.370;2023-04-15T11:35:51;8.82;;;2.60;;
51943;SDS011;37969;53.132;6.370;2023-04-15T11:38:19;11.50;;;2.80;;
51943;SDS011;37969;53.132;6.370;2023-04-15T11:40:46;9.82;;;3.05;;
51943;SDS011;37969;53.132;6.370;2023-04-15T11:43:14;5.55;;;2.10;;
51943;SDS011;37969;53.132;6.370;2023-04-15T11:48:14;9.02;;;2.22;;
51943;SDS011;37969;53.132;6.370;2023-04-15T11:50:40;7.45;;;2.38;;
51943;SDS011;37969;53.132;6.370;2023-04-15T11:53:07;6.93;;;2.13;;
51943;SDS011;37969;53.132;6.370;2023-04-15T11:55:41;6.22;;;2.30;;
51943;SDS011;37969;53.132;6.370;2023-04-15T11:58:11;6.45;;;1.98;;
51943;SDS011;37969;53.132;6.370;2023-04-15T12:00:38;8.98;;;2.05;;
51943;SDS011;37969;53.132;6.370;2023-04-15T12:03:11;9.15;;;2.28;;
51943;SDS011;37969;53.132;6.370;2023-04-15T12:06:01;4.47;;;1.80;;
51943;SDS011;37969;53.132;6.370;2023-04-15T12:08:23;5.10;;;1.90;;
51943;SDS011;37969;53.132;6.370;2023-04-15T12:10:50;6.25;;;1.88;;
51943;SDS011;37969;53.132;6.370;2023-04-15T12:13:16;6.60;;;2.00;;
51943;SDS011;37969;53.132;6.370;2023-04-15T12:15:42;7.97;;;2.67;;
51943;SDS011;37969;53.132;6.370;2023-04-15T12:18:15;9.55;;;2.63;;
51943;SDS011;37969;53.132;6.370;2023-04-15T12:20:43;9.10;;;1.92;;
51943;SDS011;37969;53.132;6.370;2023-04-15T12:23:09;7.85;;;2.20;;
51943;SDS011;37969;53.132;6.370;2023-04-15T12:25:35;15.88;;;2.33;;
51943;SDS011;37969;53.132;6.370;2023-04-15T12:28:09;8.70;;;2.03;;
51943;SDS011;37969;53.132;6.370;2023-04-15T12:30:35;11.40;;;2.38;;
51943;SDS011;37969;53.132;6.370;2023-04-15T12:33:01;7.60;;;2.00;;
51943;SDS011;37969;53.132;6.370;2023-04-15T12:35:28;12.00;;;2.33;;
51943;SDS011;37969;53.132;6.370;2023-04-15T12:37:54;11.82;;;2.03;;
51943;SDS011;37969;53.132;6.370;2023-04-15T12:40:20;9.60;;;2.20;;
51943;SDS011;37969;53.132;6.370;2023-04-15T12:42:46;8.73;;;2.33;;
51943;SDS011;37969;53.132;6.370;2023-04-15T12:45:12;11.45;;;2.30;;
51943;SDS011;37969;53.132;6.370;2023-04-15T12:47:38;9.88;;;2.20;;
51943;SDS011;37969;53.132;6.370;2023-04-15T12:50:05;9.65;;;2.03;;
51943;SDS011;37969;53.132;6.370;2023-04-15T12:52:31;8.70;;;2.00;;
51943;SDS011;37969;53.132;6.370;2023-04-15T12:54:57;10.52;;;2.10;;
51943;SDS011;37969;53.132;6.370;2023-04-15T12:57:24;13.88;;;2.65;;
51943;SDS011;37969;53.132;6.370;2023-04-15T12:59:50;15.15;;;2.38;;
51943;SDS011;37969;53.132;6.370;2023-04-15T13:02:16;11.13;;;2.10;;
51943;SDS011;37969;53.132;6.370;2023-04-15T13:04:45;14.88;;;2.88;;
51943;SDS011;37969;53.132;6.370;2023-04-15T13:07:11;10.18;;;1.85;;
51943;SDS011;37969;53.132;6.370;2023-04-15T13:09:39;10.73;;;2.53;;
51943;SDS011;37969;53.132;6.370;2023-04-15T13:12:05;12.27;;;2.85;;
51943;SDS011;37969;53.132;6.370;2023-04-15T13:14:32;11.48;;;2.15;;
51943;SDS011;37969;53.132;6.370;2023-04-15T13:16:58;11.98;;;1.92;;
51943;SDS011;37969;53.132;6.370;2023-04-15T13:19:24;11.57;;;2.00;;
51943;SDS011;37969;53.132;6.370;2023-04-15T13:21:50;19.92;;;2.50;;
51943;SDS011;37969;53.132;6.370;2023-04-15T13:24:17;15.20;;;2.28;;
51943;SDS011;37969;53.132;6.370;2023-04-15T13:26:43;8.23;;;2.60;;
51943;SDS011;37969;53.132;6.370;2023-04-15T13:29:09;17.05;;;2.30;;
51943;SDS011;37969;53.132;6.370;2023-04-15T13:31:36;12.70;;;2.55;;
51943;SDS011;37969;53.132;6.370;2023-04-15T13:34:02;14.90;;;2.20;;
51943;SDS011;37969;53.132;6.370;2023-04-15T13:36:28;8.18;;;2.10;;
51943;SDS011;37969;53.132;6.370;2023-04-15T13:38:54;16.80;;;2.63;;
51943;SDS011;37969;53.132;6.370;2023-04-15T13:41:21;12.60;;;2.25;;
51943;SDS011;37969;53.132;6.370;2023-04-15T13:43:48;17.98;;;3.10;;
51943;SDS011;37969;53.132;6.370;2023-04-15T13:46:14;13.27;;;2.28;;
51943;SDS011;37969;53.132;6.370;2023-04-15T13:48:40;11.07;;;2.67;;
51943;SDS011;37969;53.132;6.370;2023-04-15T13:51:06;10.70;;;2.30;;
51943;SDS011;37969;53.132;6.370;2023-04-15T13:53:32;16.10;;;2.35;;
51943;SDS011;37969;53.132;6.370;2023-04-15T13:56:00;9.52;;;2.30;;
51943;SDS011;37969;53.132;6.370;2023-04-15T13:58:26;11.00;;;2.15;;
51943;SDS011;37969;53.132;6.370;2023-04-15T14:00:52;13.80;;;2.72;;
51943;SDS011;37969;53.132;6.370;2023-04-15T14:03:18;9.27;;;2.10;;
51943;SDS011;37969;53.132;6.370;2023-04-15T14:05:45;13.25;;;2.25;;
51943;SDS011;37969;53.132;6.370;2023-04-15T14:08:11;18.13;;;2.88;;
51943;SDS011;37969;53.132;6.370;2023-04-15T14:10:37;14.15;;;2.42;;
51943;SDS011;37969;53.132;6.370;2023-04-15T14:13:03;10.07;;;2.30;;
51943;SDS011;37969;53.132;6.370;2023-04-15T14:15:30;16.40;;;2.53;;
51943;SDS011;37969;53.132;6.370;2023-04-15T14:17:56;11.20;;;2.22;;
51943;SDS011;37969;53.132;6.370;2023-04-15T14:20:22;18.05;;;2.90;;
51943;SDS011;37969;53.132;6.370;2023-04-15T14:22:48;9.90;;;2.42;;
51943;SDS011;37969;53.132;6.370;2023-04-15T14:25:15;15.90;;;2.65;;
51943;SDS011;37969;53.132;6.370;2023-04-15T14:27:41;12.38;;;2.80;;
51943;SDS011;37969;53.132;6.370;2023-04-15T14:30:07;10.23;;;2.63;;
51943;SDS011;37969;53.132;6.370;2023-04-15T14:32:34;14.68;;;2.58;;
51943;SDS011;37969;53.132;6.370;2023-04-15T14:35:00;18.20;;;2.53;;